sensor_id;sensor_type;location;lat;lon;timestamp;temperature;humidity
69634;DHT22;56860;51.144;16.954;2023-12-14T00:00:23;4.4;57.8
69634;DHT22;56860;51.144;16.954;2023-12-14T00:01:22;4.5;57.7
69634;DHT22;56860;51.144;16.954;2023-12-14T00:02:22;4.5;57.4
69634;DHT22;56860;51.144;16.954;2023-12-14T00:03:22;4.5;57.2
69634;DHT22;56860;51.144;16.954;2023-12-14T00:04:22;4.4;57.3
69634;DHT22;56860;51.144;16.954;2023-12-14T00:05:22;4.4;57.3
69634;DHT22;56860;51.144;16.954;2023-12-14T00:06:23;4.3;57.4
69634;DHT22;56860;51.144;16.954;2023-12-14T00:07:22;4.3;57.8
69634;DHT22;56860;51.144;16.954;2023-12-14T00:08:23;4.3;58.0
69634;DHT22;56860;51.144;16.954;2023-12-14T00:09:23;4.3;57.8
69634;DHT22;56860;51.144;16.954;2023-12-14T00:10:22;4.4;57.8
69634;DHT22;56860;51.144;16.954;2023-12-14T00:11:22;4.5;57.6
69634;DHT22;56860;51.144;16.954;2023-12-14T00:12:22;4.5;57.4
69634;DHT22;56860;51.144;16.954;2023-12-14T00:13:22;4.5;57.3
69634;DHT22;56860;51.144;16.954;2023-12-14T00:14:22;4.5;57.4
69634;DHT22;56860;51.144;16.954;2023-12-14T00:15:22;4.7;57.3
69634;DHT22;56860;51.144;16.954;2023-12-14T00:16:23;4.8;56.8
69634;DHT22;56860;51.144;16.954;2023-12-14T00:17:23;5.0;56.1
69634;DHT22;56860;51.144;16.954;2023-12-14T00:18:23;5.1;55.7
69634;DHT22;56860;51.144;16.954;2023-12-14T00:19:23;5.1;55.5
69634;DHT22;56860;51.144;16.954;2023-12-14T00:20:23;5.0;55.2
69634;DHT22;56860;51.144;16.954;2023-12-14T00:21:23;4.9;55.3
69634;DHT22;56860;51.144;16.954;2023-12-14T00:22:23;5.0;55.3
69634;DHT22;56860;51.144;16.954;2023-12-14T00:23:23;5.1;55.2
69634;DHT22;56860;51.144;16.954;2023-12-14T00:24:23;5.0;55.0
69634;DHT22;56860;51.144;16.954;2023-12-14T00:25:23;5.0;55.1
69634;DHT22;56860;51.144;16.954;2023-12-14T00:26:23;5.0;55.1
69634;DHT22;56860;51.144;16.954;2023-12-14T00:27:23;5.0;55.1
69634;DHT22;56860;51.144;16.954;2023-12-14T00:28:23;5.0;55.1
69634;DHT22;56860;51.144;16.954;2023-12-14T00:29:23;5.0;54.5
69634;DHT22;56860;51.144;16.954;2023-12-14T00:30:23;5.2;54.6
69634;DHT22;56860;51.144;16.954;2023-12-14T00:31:23;5.3;55.0
69634;DHT22;56860;51.144;16.954;2023-12-14T00:32:23;5.5;54.8
69634;DHT22;56860;51.144;16.954;2023-12-14T00:33:23;5.5;54.4
69634;DHT22;56860;51.144;16.954;2023-12-14T00:34:23;5.6;53.8
69634;DHT22;56860;51.144;16.954;2023-12-14T00:35:23;5.5;53.3
69634;DHT22;56860;51.144;16.954;2023-12-14T00:36:23;5.5;53.3
69634;DHT22;56860;51.144;16.954;2023-12-14T00:37:23;5.5;53.2
69634;DHT22;56860;51.144;16.954;2023-12-14T00:38:23;5.4;53.2
69634;DHT22;56860;51.144;16.954;2023-12-14T00:39:23;5.3;53.2
69634;DHT22;56860;51.144;16.954;2023-12-14T00:40:23;5.2;53.9
69634;DHT22;56860;51.144;16.954;2023-12-14T00:41:23;5.2;53.9
69634;DHT22;56860;51.144;16.954;2023-12-14T00:42:23;5.3;54.1
69634;DHT22;56860;51.144;16.954;2023-12-14T00:43:23;5.3;54.0
69634;DHT22;56860;51.144;16.954;2023-12-14T00:44:23;5.4;53.8
69634;DHT22;56860;51.144;16.954;2023-12-14T00:45:23;5.4;53.6
69634;DHT22;56860;51.144;16.954;2023-12-14T00:46:23;5.4;53.4
69634;DHT22;56860;51.144;16.954;2023-12-14T00:47:23;5.3;53.3
69634;DHT22;56860;51.144;16.954;2023-12-14T00:48:23;5.4;53.6
69634;DHT22;56860;51.144;16.954;2023-12-14T00:49:23;5.4;53.5
69634;DHT22;56860;51.144;16.954;2023-12-14T00:50:23;5.4;53.1
69634;DHT22;56860;51.144;16.954;2023-12-14T00:51:23;5.5;53.6
69634;DHT22;56860;51.144;16.954;2023-12-14T00:52:23;5.5;53.6
69634;DHT22;56860;51.144;16.954;2023-12-14T00:53:23;5.6;53.2
69634;DHT22;56860;51.144;16.954;2023-12-14T00:54:23;5.7;53.4
69634;DHT22;56860;51.144;16.954;2023-12-14T00:55:23;5.7;53.0
69634;DHT22;56860;51.144;16.954;2023-12-14T00:56:23;5.7;52.2
69634;DHT22;56860;51.144;16.954;2023-12-14T00:57:23;5.8;52.6
69634;DHT22;56860;51.144;16.954;2023-12-14T00:58:23;5.8;52.6
69634;DHT22;56860;51.144;16.954;2023-12-14T00:59:23;5.9;52.4
69634;DHT22;56860;51.144;16.954;2023-12-14T01:00:23;5.9;51.9
69634;DHT22;56860;51.144;16.954;2023-12-14T01:01:23;5.9;51.7
69634;DHT22;56860;51.144;16.954;2023-12-14T01:02:23;5.9;51.7
69634;DHT22;56860;51.144;16.954;2023-12-14T01:03:23;5.9;51.7
69634;DHT22;56860;51.144;16.954;2023-12-14T01:04:23;5.9;51.6
69634;DHT22;56860;51.144;16.954;2023-12-14T01:05:23;5.9;51.7
69634;DHT22;56860;51.144;16.954;2023-12-14T01:06:23;5.9;51.7
69634;DHT22;56860;51.144;16.954;2023-12-14T01:07:24;5.8;51.8
69634;DHT22;56860;51.144;16.954;2023-12-14T01:08:23;5.7;51.8
69634;DHT22;56860;51.144;16.954;2023-12-14T01:09:24;5.7;51.9
69634;DHT22;56860;51.144;16.954;2023-12-14T01:10:24;5.7;51.8
69634;DHT22;56860;51.144;16.954;2023-12-14T01:11:24;5.7;52.0
69634;DHT22;56860;51.144;16.954;2023-12-14T01:12:24;5.8;52.0
69634;DHT22;56860;51.144;16.954;2023-12-14T01:13:24;5.7;51.9
69634;DHT22;56860;51.144;16.954;2023-12-14T01:14:24;5.6;52.0
69634;DHT22;56860;51.144;16.954;2023-12-14T01:15:24;5.6;52.1
69634;DHT22;56860;51.144;16.954;2023-12-14T01:16:25;5.7;52.2
69634;DHT22;56860;51.144;16.954;2023-12-14T01:17:24;5.7;52.1
69634;DHT22;56860;51.144;16.954;2023-12-14T01:18:24;5.7;51.9
69634;DHT22;56860;51.144;16.954;2023-12-14T01:19:24;5.6;52.0
69634;DHT22;56860;51.144;16.954;2023-12-14T01:20:24;5.6;52.1
69634;DHT22;56860;51.144;16.954;2023-12-14T01:21:24;5.5;52.4
69634;DHT22;56860;51.144;16.954;2023-12-14T01:22:24;5.5;52.5
69634;DHT22;56860;51.144;16.954;2023-12-14T01:23:24;5.5;52.5
69634;DHT22;56860;51.144;16.954;2023-12-14T01:24:24;5.5;52.6
69634;DHT22;56860;51.144;16.954;2023-12-14T01:25:24;5.5;52.6
69634;DHT22;56860;51.144;16.954;2023-12-14T01:26:24;5.6;52.6
69634;DHT22;56860;51.144;16.954;2023-12-14T01:27:24;5.7;52.3
69634;DHT22;56860;51.144;16.954;2023-12-14T01:28:24;5.8;52.0
69634;DHT22;56860;51.144;16.954;2023-12-14T01:29:24;5.8;51.9
69634;DHT22;56860;51.144;16.954;2023-12-14T01:30:24;5.8;51.9
69634;DHT22;56860;51.144;16.954;2023-12-14T01:31:24;5.9;51.9
69634;DHT22;56860;51.144;16.954;2023-12-14T01:32:24;5.9;51.9
69634;DHT22;56860;51.144;16.954;2023-12-14T01:33:24;5.8;51.7
69634;DHT22;56860;51.144;16.954;2023-12-14T01:34:24;5.8;51.5
69634;DHT22;56860;51.144;16.954;2023-12-14T01:35:24;5.5;51.6
69634;DHT22;56860;51.144;16.954;2023-12-14T01:36:24;5.1;52.5
69634;DHT22;56860;51.144;16.954;2023-12-14T01:37:24;5.2;53.6
69634;DHT22;56860;51.144;16.954;2023-12-14T01:38:24;5.2;53.7
69634;DHT22;56860;51.144;16.954;2023-12-14T01:39:24;5.3;53.5
69634;DHT22;56860;51.144;16.954;2023-12-14T01:40:24;5.4;53.4
69634;DHT22;56860;51.144;16.954;2023-12-14T01:41:24;5.5;53.1
69634;DHT22;56860;51.144;16.954;2023-12-14T01:42:24;5.5;52.8
69634;DHT22;56860;51.144;16.954;2023-12-14T01:43:24;5.6;52.6
69634;DHT22;56860;51.144;16.954;2023-12-14T01:44:24;5.7;52.6
69634;DHT22;56860;51.144;16.954;2023-12-14T01:45:24;5.8;52.5
69634;DHT22;56860;51.144;16.954;2023-12-14T01:46:24;5.7;51.9
69634;DHT22;56860;51.144;16.954;2023-12-14T01:47:24;5.7;51.7
69634;DHT22;56860;51.144;16.954;2023-12-14T01:48:24;5.7;51.5
69634;DHT22;56860;51.144;16.954;2023-12-14T01:49:24;5.6;51.9
69634;DHT22;56860;51.144;16.954;2023-12-14T01:50:24;5.5;52.0
69634;DHT22;56860;51.144;16.954;2023-12-14T01:51:25;5.1;52.5
69634;DHT22;56860;51.144;16.954;2023-12-14T01:52:24;5.0;53.2
69634;DHT22;56860;51.144;16.954;2023-12-14T01:53:24;5.0;53.8
69634;DHT22;56860;51.144;16.954;2023-12-14T01:54:24;5.1;54.1
69634;DHT22;56860;51.144;16.954;2023-12-14T01:55:24;5.2;54.1
69634;DHT22;56860;51.144;16.954;2023-12-14T01:56:24;5.3;53.9
69634;DHT22;56860;51.144;16.954;2023-12-14T01:57:25;5.4;53.7
69634;DHT22;56860;51.144;16.954;2023-12-14T01:58:25;5.5;53.2
69634;DHT22;56860;51.144;16.954;2023-12-14T01:59:25;5.6;52.7
69634;DHT22;56860;51.144;16.954;2023-12-14T02:00:26;5.5;52.5
69634;DHT22;56860;51.144;16.954;2023-12-14T02:01:26;5.5;52.5
69634;DHT22;56860;51.144;16.954;2023-12-14T02:02:25;5.6;52.4
69634;DHT22;56860;51.144;16.954;2023-12-14T02:03:25;5.6;52.4
69634;DHT22;56860;51.144;16.954;2023-12-14T02:04:25;5.7;52.5
69634;DHT22;56860;51.144;16.954;2023-12-14T02:05:25;5.7;51.6
69634;DHT22;56860;51.144;16.954;2023-12-14T02:06:25;5.6;51.9
69634;DHT22;56860;51.144;16.954;2023-12-14T02:07:25;5.6;51.7
69634;DHT22;56860;51.144;16.954;2023-12-14T02:08:25;5.3;52.0
69634;DHT22;56860;51.144;16.954;2023-12-14T02:09:25;5.2;52.8
69634;DHT22;56860;51.144;16.954;2023-12-14T02:10:25;5.2;53.3
69634;DHT22;56860;51.144;16.954;2023-12-14T02:11:25;5.2;53.4
69634;DHT22;56860;51.144;16.954;2023-12-14T02:12:25;5.2;53.4
69634;DHT22;56860;51.144;16.954;2023-12-14T02:13:25;5.2;53.0
69634;DHT22;56860;51.144;16.954;2023-12-14T02:14:25;5.3;53.3
69634;DHT22;56860;51.144;16.954;2023-12-14T02:15:25;5.4;53.1
69634;DHT22;56860;51.144;16.954;2023-12-14T02:16:25;5.3;53.1
69634;DHT22;56860;51.144;16.954;2023-12-14T02:17:25;5.4;53.4
69634;DHT22;56860;51.144;16.954;2023-12-14T02:18:25;5.4;53.2
69634;DHT22;56860;51.144;16.954;2023-12-14T02:19:25;5.4;53.2
69634;DHT22;56860;51.144;16.954;2023-12-14T02:20:25;5.5;53.2
69634;DHT22;56860;51.144;16.954;2023-12-14T02:21:25;5.5;53.0
69634;DHT22;56860;51.144;16.954;2023-12-14T02:22:25;5.5;52.6
69634;DHT22;56860;51.144;16.954;2023-12-14T02:23:25;5.5;52.6
69634;DHT22;56860;51.144;16.954;2023-12-14T02:24:25;5.5;52.6
69634;DHT22;56860;51.144;16.954;2023-12-14T02:25:25;5.6;52.6
69634;DHT22;56860;51.144;16.954;2023-12-14T02:26:25;5.4;51.8
69634;DHT22;56860;51.144;16.954;2023-12-14T02:27:25;5.3;52.4
69634;DHT22;56860;51.144;16.954;2023-12-14T02:28:25;5.3;53.1
69634;DHT22;56860;51.144;16.954;2023-12-14T02:29:25;5.3;52.9
69634;DHT22;56860;51.144;16.954;2023-12-14T02:30:25;5.3;53.2
69634;DHT22;56860;51.144;16.954;2023-12-14T02:31:25;5.3;53.2
69634;DHT22;56860;51.144;16.954;2023-12-14T02:32:25;5.3;53.3
69634;DHT22;56860;51.144;16.954;2023-12-14T02:33:25;5.3;53.3
69634;DHT22;56860;51.144;16.954;2023-12-14T02:36:25;unavailable;unavailable
69634;DHT22;56860;51.144;16.954;2023-12-14T02:37:25;5.4;53.0
69634;DHT22;56860;51.144;16.954;2023-12-14T02:38:25;5.4;52.9
69634;DHT22;56860;51.144;16.954;2023-12-14T02:39:25;5.5;52.9
69634;DHT22;56860;51.144;16.954;2023-12-14T02:40:25;5.5;52.9
69634;DHT22;56860;51.144;16.954;2023-12-14T02:41:25;5.5;52.8
69634;DHT22;56860;51.144;16.954;2023-12-14T02:42:25;5.6;52.5
69634;DHT22;56860;51.144;16.954;2023-12-14T02:43:25;5.6;52.4
69634;DHT22;56860;51.144;16.954;2023-12-14T02:44:25;5.6;52.1
69634;DHT22;56860;51.144;16.954;2023-12-14T02:45:25;5.5;51.8
69634;DHT22;56860;51.144;16.954;2023-12-14T02:46:25;5.5;52.0
69634;DHT22;56860;51.144;16.954;2023-12-14T02:47:25;5.5;52.1
69634;DHT22;56860;51.144;16.954;2023-12-14T02:48:25;5.5;52.2
69634;DHT22;56860;51.144;16.954;2023-12-14T02:49:25;5.6;52.3
69634;DHT22;56860;51.144;16.954;2023-12-14T02:50:25;5.6;52.1
69634;DHT22;56860;51.144;16.954;2023-12-14T02:51:25;5.5;52.0
69634;DHT22;56860;51.144;16.954;2023-12-14T02:52:25;5.6;52.2
69634;DHT22;56860;51.144;16.954;2023-12-14T02:53:25;5.5;52.2
69634;DHT22;56860;51.144;16.954;2023-12-14T02:54:25;5.5;52.2
69634;DHT22;56860;51.144;16.954;2023-12-14T02:55:25;5.5;52.3
69634;DHT22;56860;51.144;16.954;2023-12-14T02:56:25;5.5;52.4
69634;DHT22;56860;51.144;16.954;2023-12-14T02:57:25;5.5;52.2
69634;DHT22;56860;51.144;16.954;2023-12-14T02:58:25;5.5;52.2
69634;DHT22;56860;51.144;16.954;2023-12-14T02:59:25;5.4;52.1
69634;DHT22;56860;51.144;16.954;2023-12-14T03:00:25;5.2;52.4
69634;DHT22;56860;51.144;16.954;2023-12-14T03:01:25;5.1;52.9
69634;DHT22;56860;51.144;16.954;2023-12-14T03:02:25;5.2;53.1
69634;DHT22;56860;51.144;16.954;2023-12-14T03:03:25;5.2;53.3
69634;DHT22;56860;51.144;16.954;2023-12-14T03:04:25;5.2;53.4
69634;DHT22;56860;51.144;16.954;2023-12-14T03:05:25;5.3;53.3
69634;DHT22;56860;51.144;16.954;2023-12-14T03:06:25;5.3;53.1
69634;DHT22;56860;51.144;16.954;2023-12-14T03:07:25;5.3;53.0
69634;DHT22;56860;51.144;16.954;2023-12-14T03:08:25;5.4;53.2
69634;DHT22;56860;51.144;16.954;2023-12-14T03:09:25;5.5;53.3
69634;DHT22;56860;51.144;16.954;2023-12-14T03:10:25;5.6;53.1
69634;DHT22;56860;51.144;16.954;2023-12-14T03:11:25;5.7;52.8
69634;DHT22;56860;51.144;16.954;2023-12-14T03:12:25;5.8;52.4
69634;DHT22;56860;51.144;16.954;2023-12-14T03:13:25;unavailable;unavailable
69634;DHT22;56860;51.144;16.954;2023-12-14T03:14:25;5.9;51.9
69634;DHT22;56860;51.144;16.954;2023-12-14T03:15:25;5.8;51.4
69634;DHT22;56860;51.144;16.954;2023-12-14T03:16:25;5.8;51.5
69634;DHT22;56860;51.144;16.954;2023-12-14T03:17:25;5.9;51.7
69634;DHT22;56860;51.144;16.954;2023-12-14T03:18:25;6.0;51.9
69634;DHT22;56860;51.144;16.954;2023-12-14T03:19:25;6.0;51.6
69634;DHT22;56860;51.144;16.954;2023-12-14T03:20:25;6.1;51.4
69634;DHT22;56860;51.144;16.954;2023-12-14T03:21:25;6.1;51.4
69634;DHT22;56860;51.144;16.954;2023-12-14T03:22:25;6.2;51.2
69634;DHT22;56860;51.144;16.954;2023-12-14T03:23:25;6.1;50.8
69634;DHT22;56860;51.144;16.954;2023-12-14T03:24:25;6.0;50.7
69634;DHT22;56860;51.144;16.954;2023-12-14T03:25:25;6.0;50.7
69634;DHT22;56860;51.144;16.954;2023-12-14T03:26:25;5.9;50.7
69634;DHT22;56860;51.144;16.954;2023-12-14T03:27:25;5.9;50.8
69634;DHT22;56860;51.144;16.954;2023-12-14T03:28:25;6.0;51.2
69634;DHT22;56860;51.144;16.954;2023-12-14T03:29:25;6.0;51.3
69634;DHT22;56860;51.144;16.954;2023-12-14T03:30:25;6.1;51.0
69634;DHT22;56860;51.144;16.954;2023-12-14T03:31:25;6.1;51.0
69634;DHT22;56860;51.144;16.954;2023-12-14T03:32:25;6.2;50.9
69634;DHT22;56860;51.144;16.954;2023-12-14T03:33:25;6.1;50.5
69634;DHT22;56860;51.144;16.954;2023-12-14T03:34:25;6.1;50.4
69634;DHT22;56860;51.144;16.954;2023-12-14T03:35:25;6.2;50.3
69634;DHT22;56860;51.144;16.954;2023-12-14T03:36:25;6.1;50.0
69634;DHT22;56860;51.144;16.954;2023-12-14T03:37:25;6.1;50.1
69634;DHT22;56860;51.144;16.954;2023-12-14T03:38:25;6.0;50.0
69634;DHT22;56860;51.144;16.954;2023-12-14T03:39:25;6.0;50.1
69634;DHT22;56860;51.144;16.954;2023-12-14T03:40:25;5.9;50.3
69634;DHT22;56860;51.144;16.954;2023-12-14T03:41:25;6.0;50.5
69634;DHT22;56860;51.144;16.954;2023-12-14T03:42:25;5.9;50.5
69634;DHT22;56860;51.144;16.954;2023-12-14T03:43:25;6.0;50.6
69634;DHT22;56860;51.144;16.954;2023-12-14T03:44:25;6.0;50.5
69634;DHT22;56860;51.144;16.954;2023-12-14T03:45:25;6.0;50.6
69634;DHT22;56860;51.144;16.954;2023-12-14T03:46:25;6.0;50.4
69634;DHT22;56860;51.144;16.954;2023-12-14T03:47:25;5.9;50.3
69634;DHT22;56860;51.144;16.954;2023-12-14T03:48:25;5.9;50.6
69634;DHT22;56860;51.144;16.954;2023-12-14T03:49:25;5.9;50.9
69634;DHT22;56860;51.144;16.954;2023-12-14T03:50:25;5.9;50.9
69634;DHT22;56860;51.144;16.954;2023-12-14T03:51:25;6.0;50.9
69634;DHT22;56860;51.144;16.954;2023-12-14T03:52:25;6.0;50.6
69634;DHT22;56860;51.144;16.954;2023-12-14T03:53:25;6.0;50.5
69634;DHT22;56860;51.144;16.954;2023-12-14T03:54:25;6.1;50.4
69634;DHT22;56860;51.144;16.954;2023-12-14T03:55:25;6.1;50.5
69634;DHT22;56860;51.144;16.954;2023-12-14T03:56:25;6.1;50.4
69634;DHT22;56860;51.144;16.954;2023-12-14T03:57:25;6.1;50.2
69634;DHT22;56860;51.144;16.954;2023-12-14T03:58:25;6.2;50.3
69634;DHT22;56860;51.144;16.954;2023-12-14T03:59:25;6.2;50.2
69634;DHT22;56860;51.144;16.954;2023-12-14T04:00:25;6.1;50.1
69634;DHT22;56860;51.144;16.954;2023-12-14T04:01:25;6.2;50.1
69634;DHT22;56860;51.144;16.954;2023-12-14T04:02:25;6.1;49.8
69634;DHT22;56860;51.144;16.954;2023-12-14T04:03:25;6.1;50.1
69634;DHT22;56860;51.144;16.954;2023-12-14T04:04:25;6.2;50.5
69634;DHT22;56860;51.144;16.954;2023-12-14T04:05:25;6.2;50.4
69634;DHT22;56860;51.144;16.954;2023-12-14T04:06:25;6.2;50.2
69634;DHT22;56860;51.144;16.954;2023-12-14T04:07:25;6.2;50.1
69634;DHT22;56860;51.144;16.954;2023-12-14T04:08:25;6.2;50.1
69634;DHT22;56860;51.144;16.954;2023-12-14T04:09:25;6.2;50.0
69634;DHT22;56860;51.144;16.954;2023-12-14T04:10:25;6.1;50.0
69634;DHT22;56860;51.144;16.954;2023-12-14T04:11:25;6.2;50.2
69634;DHT22;56860;51.144;16.954;2023-12-14T04:12:25;6.2;50.3
69634;DHT22;56860;51.144;16.954;2023-12-14T04:13:25;6.2;50.3
69634;DHT22;56860;51.144;16.954;2023-12-14T04:14:25;6.2;50.1
69634;DHT22;56860;51.144;16.954;2023-12-14T04:15:25;6.3;50.2
69634;DHT22;56860;51.144;16.954;2023-12-14T04:16:25;6.2;50.1
69634;DHT22;56860;51.144;16.954;2023-12-14T04:17:25;6.2;50.0
69634;DHT22;56860;51.144;16.954;2023-12-14T04:18:25;6.2;49.9
69634;DHT22;56860;51.144;16.954;2023-12-14T04:19:25;6.1;50.0
69634;DHT22;56860;51.144;16.954;2023-12-14T04:20:25;6.0;50.1
69634;DHT22;56860;51.144;16.954;2023-12-14T04:21:25;5.9;50.4
69634;DHT22;56860;51.144;16.954;2023-12-14T04:22:25;5.9;50.6
69634;DHT22;56860;51.144;16.954;2023-12-14T04:23:25;5.8;50.9
69634;DHT22;56860;51.144;16.954;2023-12-14T04:24:25;5.5;51.3
69634;DHT22;56860;51.144;16.954;2023-12-14T04:25:25;5.4;52.0
69634;DHT22;56860;51.144;16.954;2023-12-14T04:26:25;5.4;52.2
69634;DHT22;56860;51.144;16.954;2023-12-14T04:27:25;5.4;52.3
69634;DHT22;56860;51.144;16.954;2023-12-14T04:28:25;5.4;52.4
69634;DHT22;56860;51.144;16.954;2023-12-14T04:29:25;5.3;52.4
69634;DHT22;56860;51.144;16.954;2023-12-14T04:30:25;5.0;52.6
69634;DHT22;56860;51.144;16.954;2023-12-14T04:31:25;4.9;53.3
69634;DHT22;56860;51.144;16.954;2023-12-14T04:32:25;4.8;53.2
69634;DHT22;56860;51.144;16.954;2023-12-14T04:33:25;4.8;54.2
69634;DHT22;56860;51.144;16.954;2023-12-14T04:34:25;4.9;54.4
69634;DHT22;56860;51.144;16.954;2023-12-14T04:35:25;5.1;54.2
69634;DHT22;56860;51.144;16.954;2023-12-14T04:36:25;5.1;54.0
69634;DHT22;56860;51.144;16.954;2023-12-14T04:37:25;5.1;53.5
69634;DHT22;56860;51.144;16.954;2023-12-14T04:38:25;5.2;53.4
69634;DHT22;56860;51.144;16.954;2023-12-14T04:39:25;5.2;53.2
69634;DHT22;56860;51.144;16.954;2023-12-14T04:40:25;5.2;52.9
69634;DHT22;56860;51.144;16.954;2023-12-14T04:41:25;5.2;53.0
69634;DHT22;56860;51.144;16.954;2023-12-14T04:42:25;5.1;53.0
69634;DHT22;56860;51.144;16.954;2023-12-14T04:43:25;5.1;52.7
69634;DHT22;56860;51.144;16.954;2023-12-14T04:44:25;5.0;53.1
69634;DHT22;56860;51.144;16.954;2023-12-14T04:45:25;5.0;53.6
69634;DHT22;56860;51.144;16.954;2023-12-14T04:46:25;5.0;53.7
69634;DHT22;56860;51.144;16.954;2023-12-14T04:47:25;5.0;53.7
69634;DHT22;56860;51.144;16.954;2023-12-14T04:48:25;5.1;53.5
69634;DHT22;56860;51.144;16.954;2023-12-14T04:49:25;5.1;53.3
69634;DHT22;56860;51.144;16.954;2023-12-14T04:50:25;5.1;53.1
69634;DHT22;56860;51.144;16.954;2023-12-14T04:51:25;5.0;53.1
69634;DHT22;56860;51.144;16.954;2023-12-14T04:52:25;5.0;53.2
69634;DHT22;56860;51.144;16.954;2023-12-14T04:53:25;4.9;53.3
69634;DHT22;56860;51.144;16.954;2023-12-14T04:54:25;4.7;53.5
69634;DHT22;56860;51.144;16.954;2023-12-14T04:55:25;4.6;54.2
69634;DHT22;56860;51.144;16.954;2023-12-14T04:56:25;4.7;54.4
69634;DHT22;56860;51.144;16.954;2023-12-14T04:57:25;4.7;54.5
69634;DHT22;56860;51.144;16.954;2023-12-14T04:58:25;4.8;54.6
69634;DHT22;56860;51.144;16.954;2023-12-14T04:59:25;4.8;54.6
69634;DHT22;56860;51.144;16.954;2023-12-14T05:00:25;4.6;55.1
69634;DHT22;56860;51.144;16.954;2023-12-14T05:01:25;4.6;55.5
69634;DHT22;56860;51.144;16.954;2023-12-14T05:02:25;4.6;55.6
69634;DHT22;56860;51.144;16.954;2023-12-14T05:03:25;4.7;55.4
69634;DHT22;56860;51.144;16.954;2023-12-14T05:04:25;4.8;55.4
69634;DHT22;56860;51.144;16.954;2023-12-14T05:05:25;4.9;55.2
69634;DHT22;56860;51.144;16.954;2023-12-14T05:06:25;5.0;54.7
69634;DHT22;56860;51.144;16.954;2023-12-14T05:07:25;5.0;54.5
69634;DHT22;56860;51.144;16.954;2023-12-14T05:08:25;5.0;54.2
69634;DHT22;56860;51.144;16.954;2023-12-14T05:09:25;5.0;54.2
69634;DHT22;56860;51.144;16.954;2023-12-14T05:10:25;4.9;54.5
69634;DHT22;56860;51.144;16.954;2023-12-14T05:11:25;4.9;54.6
69634;DHT22;56860;51.144;16.954;2023-12-14T05:12:25;4.9;54.7
69634;DHT22;56860;51.144;16.954;2023-12-14T05:13:25;5.0;54.6
69634;DHT22;56860;51.144;16.954;2023-12-14T05:14:25;5.1;54.4
69634;DHT22;56860;51.144;16.954;2023-12-14T05:15:25;5.1;54.2
69634;DHT22;56860;51.144;16.954;2023-12-14T05:16:25;5.2;53.9
69634;DHT22;56860;51.144;16.954;2023-12-14T05:17:25;5.2;53.6
69634;DHT22;56860;51.144;16.954;2023-12-14T05:18:25;5.2;54.0
69634;DHT22;56860;51.144;16.954;2023-12-14T05:19:25;5.2;54.0
69634;DHT22;56860;51.144;16.954;2023-12-14T05:20:25;5.4;53.8
69634;DHT22;56860;51.144;16.954;2023-12-14T05:21:25;5.4;53.2
69634;DHT22;56860;51.144;16.954;2023-12-14T05:22:25;5.4;52.9
69634;DHT22;56860;51.144;16.954;2023-12-14T05:23:25;5.4;52.7
69634;DHT22;56860;51.144;16.954;2023-12-14T05:24:25;5.4;52.8
69634;DHT22;56860;51.144;16.954;2023-12-14T05:25:25;5.5;52.9
69634;DHT22;56860;51.144;16.954;2023-12-14T05:26:25;5.6;52.8
69634;DHT22;56860;51.144;16.954;2023-12-14T05:27:25;5.6;52.4
69634;DHT22;56860;51.144;16.954;2023-12-14T05:28:25;5.4;52.6
69634;DHT22;56860;51.144;16.954;2023-12-14T05:29:25;5.3;52.9
69634;DHT22;56860;51.144;16.954;2023-12-14T05:30:25;5.3;52.5
69634;DHT22;56860;51.144;16.954;2023-12-14T05:31:25;5.3;52.8
69634;DHT22;56860;51.144;16.954;2023-12-14T05:32:25;5.3;52.8
69634;DHT22;56860;51.144;16.954;2023-12-14T05:33:25;5.2;52.6
69634;DHT22;56860;51.144;16.954;2023-12-14T05:34:25;5.1;52.7
69634;DHT22;56860;51.144;16.954;2023-12-14T05:35:25;5.1;53.1
69634;DHT22;56860;51.144;16.954;2023-12-14T05:36:25;5.0;53.2
69634;DHT22;56860;51.144;16.954;2023-12-14T05:37:25;5.0;52.6
69634;DHT22;56860;51.144;16.954;2023-12-14T05:38:25;4.9;53.5
69634;DHT22;56860;51.144;16.954;2023-12-14T05:39:25;4.9;53.8
69634;DHT22;56860;51.144;16.954;2023-12-14T05:40:25;5.0;53.9
69634;DHT22;56860;51.144;16.954;2023-12-14T05:41:25;5.0;53.8
69634;DHT22;56860;51.144;16.954;2023-12-14T05:42:25;5.0;53.6
69634;DHT22;56860;51.144;16.954;2023-12-14T05:43:25;5.0;53.5
69634;DHT22;56860;51.144;16.954;2023-12-14T05:44:25;5.0;53.6
69634;DHT22;56860;51.144;16.954;2023-12-14T05:45:25;5.0;53.1
69634;DHT22;56860;51.144;16.954;2023-12-14T05:46:25;4.9;53.6
69634;DHT22;56860;51.144;16.954;2023-12-14T05:47:25;4.9;54.0
69634;DHT22;56860;51.144;16.954;2023-12-14T05:48:25;4.9;54.0
69634;DHT22;56860;51.144;16.954;2023-12-14T05:49:25;4.8;54.0
69634;DHT22;56860;51.144;16.954;2023-12-14T05:50:25;4.8;53.9
69634;DHT22;56860;51.144;16.954;2023-12-14T05:51:25;4.8;54.0
69634;DHT22;56860;51.144;16.954;2023-12-14T05:52:25;4.9;54.2
69634;DHT22;56860;51.144;16.954;2023-12-14T05:53:25;5.0;54.0
69634;DHT22;56860;51.144;16.954;2023-12-14T05:54:25;5.0;53.3
69634;DHT22;56860;51.144;16.954;2023-12-14T05:55:25;5.1;53.5
69634;DHT22;56860;51.144;16.954;2023-12-14T05:56:25;5.2;53.4
69634;DHT22;56860;51.144;16.954;2023-12-14T05:57:25;5.2;53.3
69634;DHT22;56860;51.144;16.954;2023-12-14T05:58:25;5.2;53.0
69634;DHT22;56860;51.144;16.954;2023-12-14T05:59:25;5.1;52.3
69634;DHT22;56860;51.144;16.954;2023-12-14T06:00:25;5.0;52.5
69634;DHT22;56860;51.144;16.954;2023-12-14T06:01:25;5.0;52.8
69634;DHT22;56860;51.144;16.954;2023-12-14T06:02:25;5.0;53.1
69634;DHT22;56860;51.144;16.954;2023-12-14T06:03:25;5.0;53.1
69634;DHT22;56860;51.144;16.954;2023-12-14T06:04:25;5.0;53.1
69634;DHT22;56860;51.144;16.954;2023-12-14T06:05:25;5.0;52.8
69634;DHT22;56860;51.144;16.954;2023-12-14T06:06:25;5.0;52.7
69634;DHT22;56860;51.144;16.954;2023-12-14T06:07:25;5.0;52.7
69634;DHT22;56860;51.144;16.954;2023-12-14T06:08:25;4.8;53.1
69634;DHT22;56860;51.144;16.954;2023-12-14T06:09:25;4.8;53.7
69634;DHT22;56860;51.144;16.954;2023-12-14T06:10:25;4.8;53.7
69634;DHT22;56860;51.144;16.954;2023-12-14T06:11:25;4.9;53.7
69634;DHT22;56860;51.144;16.954;2023-12-14T06:12:25;5.0;53.6
69634;DHT22;56860;51.144;16.954;2023-12-14T06:13:25;5.0;53.3
69634;DHT22;56860;51.144;16.954;2023-12-14T06:14:25;4.9;52.9
69634;DHT22;56860;51.144;16.954;2023-12-14T06:15:25;4.8;53.3
69634;DHT22;56860;51.144;16.954;2023-12-14T06:16:25;4.7;53.7
69634;DHT22;56860;51.144;16.954;2023-12-14T06:17:25;4.7;53.9
69634;DHT22;56860;51.144;16.954;2023-12-14T06:18:25;4.6;54.3
69634;DHT22;56860;51.144;16.954;2023-12-14T06:19:25;4.6;54.5
69634;DHT22;56860;51.144;16.954;2023-12-14T06:20:25;4.6;54.5
69634;DHT22;56860;51.144;16.954;2023-12-14T06:21:25;4.6;54.5
69634;DHT22;56860;51.144;16.954;2023-12-14T06:22:25;4.6;54.6
69634;DHT22;56860;51.144;16.954;2023-12-14T06:23:25;4.7;54.6
69634;DHT22;56860;51.144;16.954;2023-12-14T06:24:25;4.8;54.6
69634;DHT22;56860;51.144;16.954;2023-12-14T06:25:25;4.9;54.2
69634;DHT22;56860;51.144;16.954;2023-12-14T06:26:25;4.8;53.8
69634;DHT22;56860;51.144;16.954;2023-12-14T06:27:25;4.6;54.0
69634;DHT22;56860;51.144;16.954;2023-12-14T06:28:25;4.4;54.7
69634;DHT22;56860;51.144;16.954;2023-12-14T06:29:25;4.4;55.1
69634;DHT22;56860;51.144;16.954;2023-12-14T06:30:25;4.5;55.0
69634;DHT22;56860;51.144;16.954;2023-12-14T06:31:25;4.4;55.2
69634;DHT22;56860;51.144;16.954;2023-12-14T06:32:25;4.4;55.0